Airfield :
LOGIN :

Register | Disclaimer

   EN    FR    IT 

 










Legend :    VFR   Marginal VFR   IFR   Intensive IFR   Very Intensive IFR
Visi :
Ceiling :
>= 8 km
>= 3000ft
5 to 8 km
1000 to 3000 ft
1500m to 5 km
500 to 1000 ft
800 to 1500m
200 to 500 ft
< 800m
< 200 ft
Symbols :   Thunderstorms  Fog  Heavy snow  Heavy precipitations  Wind > 20 kt
SIGMETs :     Misc.  Thunderstorms  Icing  Turbulence  Mountain Waves  Volcanic Ashes






- Airport Elevation : 392 ft
- IATA code : CDG


LFPG - Paris-Aeroport Charles De Gaulle

CURRENT METAR :
  • 111500Z 15006KT 090V180 CAVOK 34/14 Q1013 TEMPO 4000 TSRA SCT080CB

EXPIRED METARs :
  • 111430Z 10007KT 070V150 CAVOK 34/15 Q1013 TEMPO 4000 TSRA SCT080CB
  • 111400Z 10007KT 030V200 CAVOK 35/14 Q1013 TEMPO 4000 TSRA SCT080CB
  • 111330Z VRB02KT CAVOK 36/15 Q1013 TEMPO 4000 TSRA SCT080CB
  • 111300Z 11005KT 030V160 CAVOK 36/14 Q1014 TEMPO 4000 TSRA SCT080CB
  • 111230Z 12004KT 030V180 CAVOK 35/15 Q1014 TEMPO 4000 TSRA SCT080CB
  • 111200Z 20006KT 150V230 CAVOK 35/15 Q1014 TEMPO 4000 TSRA SCT080CB

TAF TAF LFPG
Valid from the 11 at 12:00 until the 12 at 18:00 UTC


111100Z 1112/1218 VRB03KT CAVOK TX36/1114Z TN22/1204Z
PROB30
TEMPO 1114/1121 4000 TSRA SCT080CB
PROB40
TEMPO 1116/1118 VRB20G35KT 2000 TSRAGR SCT070CB
PROB30
TEMPO 1214/1218 4000 TSRA SCT080CB
TEMPO 1217/1218 20020G40KT 1500 TSRAGR SCT070CB
ATIS : +33 1 48 62 10 92



MET'MAP, your aeronautical weather chart ! - Copyright ORBIFLY December 2007 - Disclaimer

ORBIFLY MET'MAP TEAM :

Programming & Development : Alexandra Zaïnal
Concept & original design : Baudouin d'Aumeries
Assistance for programming : Marc-Olivier Méhu
Technical & hardware support : Manuel Goepfert

Contact : metmap@orbifly.com




SOURCES & CREDITS :

   NOAA